| time (UTC) | temp C | wind direction | speed KPH | gust KPH | rain 1hr cm | rain 24hr cm | rain mn cm | humidity % | barometer mb |
| 20260502220457 | 11 | 5 | 0.0 | 0.0 | 0.03 | 0.25 | 0.25 | 88 | 1009.8 |
| 20260502215959 | 11 | 5 | 0.0 | 0.0 | 0.03 | 0.25 | 0.25 | 88 | 1009.7 |
| 20260502215459 | 11 | 5 | 0.0 | 0.0 | 0.03 | 0.25 | 0.25 | 88 | 1009.8 |
| 20260502214957 | 11 | 5 | 0.0 | 0.0 | 0.03 | 0.25 | 0.25 | 88 | 1009.8 |
| 20260502214458 | 11 | 5 | 0.0 | 0.0 | 0.03 | 0.25 | 0.25 | 88 | 1009.7 |
| 20260502213457 | 11 | 5 | 0.0 | 0.0 | 0.03 | 0.25 | 0.25 | 88 | 1009.7 |
| 20260502212959 | 11 | 5 | 0.0 | 0.0 | 0.03 | 0.25 | 0.25 | 88 | 1009.8 |
| 20260502211458 | 11 | 5 | 0.0 | 3.2 | 0.00 | 0.23 | 0.23 | 88 | 1009.7 |
| 20260502210959 | 11 | 5 | 1.6 | 3.2 | 0.00 | 0.23 | 0.23 | 88 | 1009.7 |
| 20260502210458 | 11 | 5 | 0.0 | 3.2 | 0.00 | 0.23 | 0.23 | 88 | 1009.7 |
| 20260502210000 | 11 | 5 | 1.6 | 4.8 | 0.00 | 0.23 | 0.23 | 88 | 1009.8 |
| 20260502205500 | 11 | 5 | 1.6 | 4.8 | 0.00 | 0.23 | 0.23 | 87 | 1009.7 |
| 20260502204957 | 11 | 342 | 1.6 | 6.4 | 0.00 | 0.23 | 0.23 | 87 | 1009.7 |
| 20260502204458 | 11 | 351 | 3.2 | 6.4 | 0.00 | 0.23 | 0.23 | 87 | 1009.7 |
| 20260502203959 | 11 | 335 | 0.0 | 4.8 | 0.00 | 0.23 | 0.23 | 87 | 1009.7 |
| 20260502203458 | 11 | 346 | 4.8 | 4.8 | 0.00 | 0.23 | 0.23 | 87 | 1009.7 |
| 20260502201957 | 11 | 5 | 3.2 | 4.8 | 0.00 | 0.23 | 0.23 | 87 | 1009.8 |
| 20260502201458 | 11 | 13 | 1.6 | 4.8 | 0.00 | 0.23 | 0.23 | 87 | 1009.8 |
| 20260502200959 | 11 | 13 | 3.2 | 4.8 | 0.00 | 0.23 | 0.23 | 87 | 1009.8 |
| 20260502200457 | 11 | 11 | 4.8 | 4.8 | 0.03 | 0.23 | 0.23 | 86 | 1009.8 |
| 20260502195959 | 11 | 32 | 1.6 | 3.2 | 0.03 | 0.23 | 0.23 | 86 | 1009.8 |
| 20260502195457 | 11 | 65 | 1.6 | 3.2 | 0.03 | 0.23 | 0.23 | 86 | 1009.8 |
| 20260502194957 | 11 | 65 | 1.6 | 1.6 | 0.03 | 0.23 | 0.23 | 86 | 1009.8 |
| 20260502194458 | 11 | 65 | 0.0 | 3.2 | 0.03 | 0.23 | 0.23 | 86 | 1009.8 |
| 20260502193457 | 11 | 65 | 0.0 | 3.2 | 0.05 | 0.23 | 0.23 | 86 | 1009.9 |
| 20260502192957 | 11 | 46 | 0.0 | 3.2 | 0.05 | 0.23 | 0.23 | 86 | 1009.9 |
| 20260502192457 | 11 | 43 | 3.2 | 3.2 | 0.08 | 0.23 | 0.23 | 86 | 1009.9 |
| 20260502191957 | 11 | 12 | 0.0 | 1.6 | 0.10 | 0.23 | 0.23 | 86 | 1009.9 |
| 20260502191458 | 12 | 12 | 0.0 | 1.6 | 0.13 | 0.23 | 0.23 | 86 | 1010.0 |
| 20260502190958 | 12 | 12 | 0.0 | 1.6 | 0.15 | 0.23 | 0.23 | 86 | 1010.0 |
| 20260502190458 | 12 | 12 | 1.6 | 3.2 | 0.13 | 0.23 | 0.23 | 85 | 1010.1 |
| 20260502190000 | 12 | 12 | 3.2 | 3.2 | 0.13 | 0.23 | 0.23 | 85 | 1010.1 |
| 20260502184458 | 12 | 133 | 0.0 | 3.2 | 0.15 | 0.23 | 0.23 | 85 | 1010.3 |
| 20260502183958 | 12 | 133 | 0.0 | 3.2 | 0.15 | 0.20 | 0.20 | 85 | 1010.3 |
| 20260502183458 | 12 | 133 | 1.6 | 3.2 | 0.15 | 0.18 | 0.18 | 85 | 1010.2 |
| 20260502182957 | 12 | 147 | 1.6 | 4.8 | 0.15 | 0.18 | 0.18 | 84 | 1010.3 |
| 20260502182457 | 12 | 131 | 0.0 | 8.0 | 0.15 | 0.15 | 0.15 | 84 | 1010.2 |
| 20260502180957 | 12 | 128 | 3.2 | 6.4 | 0.08 | 0.10 | 0.10 | 84 | 1010.4 |
| 20260502170458 | 13 | 163 | 6.4 | 11.3 | 0.00 | 0.00 | 0.00 | 80 | 1011.0 |
| 20260502163958 | 13 | 153 | 6.4 | 12.9 | 0.00 | 0.00 | 0.00 | 78 | 1011.1 |
| 20260502163457 | 13 | 163 | 9.7 | 12.9 | 0.00 | 0.00 | 0.00 | 78 | 1011.2 |
| 20260502161458 | 13 | 152 | 6.4 | 11.3 | 0.00 | 0.00 | 0.00 | 77 | 1011.1 |
| 20260502160958 | 14 | 178 | 1.6 | 12.9 | 0.00 | 0.00 | 0.00 | 76 | 1011.0 |
| 20260502160457 | 14 | 130 | 4.8 | 12.9 | 0.00 | 0.00 | 0.00 | 75 | 1011.1 |
| 20260502151957 | 15 | 145 | 8.0 | 11.3 | 0.00 | 0.00 | 0.00 | 73 | 1011.3 |
| 20260502151457 | 15 | 148 | 6.4 | 11.3 | 0.00 | 0.00 | 0.00 | 73 | 1011.5 |
| 20260502150958 | 15 | 162 | 6.4 | 11.3 | 0.00 | 0.00 | 0.00 | 73 | 1011.5 |
| 20260502150458 | 15 | 154 | 4.8 | 8.0 | 0.00 | 0.00 | 0.00 | 73 | 1011.7 |
| 20260502130458 | 15 | 154 | 4.8 | 14.5 | 0.00 | 0.00 | 0.00 | 73 | 1012.7 |
| 20260502122958 | 15 | 153 | 11.3 | 12.9 | 0.00 | 0.00 | 0.00 | 73 | 1013.1 |
| 20260502121958 | 15 | 140 | 3.2 | 16.1 | 0.00 | 0.00 | 0.00 | 74 | 1013.3 |
| 20260502121459 | 15 | 161 | 8.0 | 16.1 | 0.00 | 0.00 | 0.00 | 74 | 1013.4 |
| 20260502120958 | 15 | 152 | 8.0 | 16.1 | 0.00 | 0.00 | 0.00 | 75 | 1013.4 |
| 20260502115501 | 15 | 161 | 11.3 | 16.1 | 0.00 | 0.00 | 0.00 | 77 | 1013.6 |
| 20260502114959 | 15 | 167 | 8.0 | 14.5 | 0.00 | 0.00 | 0.00 | 76 | 1013.5 |
| 20260502114459 | 15 | 115 | 4.8 | 14.5 | 0.00 | 0.00 | 0.00 | 77 | 1013.6 |
| 20260502113958 | 15 | 119 | 4.8 | 14.5 | 0.00 | 0.00 | 0.00 | 77 | 1013.7 |
| 20260502113457 | 14 | 147 | 14.5 | 16.1 | 0.00 | 0.00 | 0.00 | 77 | 1013.7 |
| 20260502112957 | 14 | 175 | 9.7 | 16.1 | 0.00 | 0.00 | 0.00 | 77 | 1013.8 |
| 20260502112458 | 14 | 153 | 6.4 | 14.5 | 0.00 | 0.00 | 0.00 | 77 | 1013.9 |
| 20260502110957 | 13 | 154 | 9.7 | 16.1 | 0.00 | 0.00 | 0.00 | 77 | 1014.1 |
| 20260502105958 | 14 | 146 | 6.4 | 17.7 | 0.00 | 0.00 | 0.00 | 77 | 1014.4 |
| 20260502105459 | 14 | 157 | 11.3 | 17.7 | 0.00 | 0.00 | 0.00 | 77 | 1014.4 |
| 20260502104458 | 14 | 182 | 8.0 | 17.7 | 0.00 | 0.00 | 0.00 | 77 | 1014.6 |
| 20260502103957 | 14 | 161 | 9.7 | 17.7 | 0.00 | 0.00 | 0.00 | 76 | 1014.5 |
| 20260502103457 | 14 | 169 | 9.7 | 16.1 | 0.00 | 0.00 | 0.00 | 76 | 1014.5 |
| 20260502102958 | 14 | 155 | 14.5 | 16.1 | 0.00 | 0.00 | 0.00 | 76 | 1014.6 |
| 20260502102458 | 14 | 148 | 14.5 | 17.7 | 0.00 | 0.00 | 0.00 | 76 | 1014.5 |
| 20260502101958 | 14 | 150 | 6.4 | 17.7 | 0.00 | 0.00 | 0.00 | 76 | 1014.5 |
| 20260502101458 | 14 | 136 | 11.3 | 12.9 | 0.00 | 0.00 | 0.00 | 75 | 1014.4 |
| 20260502100958 | 14 | 180 | 9.7 | 16.1 | 0.00 | 0.00 | 0.00 | 75 | 1014.5 |
| 20260502100457 | 15 | 183 | 9.7 | 16.1 | 0.00 | 0.00 | 0.00 | 75 | 1014.4 |
| 20260502091457 | 14 | 155 | 12.9 | 19.3 | 0.00 | 0.00 | 0.00 | 80 | 1014.5 |
| 20260502090957 | 13 | 142 | 6.4 | 19.3 | 0.00 | 0.00 | 0.00 | 80 | 1014.7 |
| 20260502090458 | 13 | 133 | 8.0 | 17.7 | 0.00 | 0.00 | 0.00 | 80 | 1014.7 |
| 20260502071457 | 12 | 178 | 6.4 | 14.5 | 0.00 | 0.00 | 0.00 | 87 | 1015.2 |
| 20260502070957 | 12 | 192 | 6.4 | 14.5 | 0.00 | 0.00 | 0.00 | 88 | 1015.2 |
| 20260502070458 | 12 | 188 | 9.7 | 14.5 | 0.00 | 0.00 | 0.00 | 88 | 1015.2 |
| 20260502065959 | 12 | 213 | 11.3 | 14.5 | 0.00 | 0.00 | 0.00 | 88 | 1015.1 |
| 20260502065457 | 12 | 200 | 8.0 | 12.9 | 0.00 | 0.00 | 0.00 | 88 | 1015.1 |
| 20260502064957 | 12 | 184 | 8.0 | 14.5 | 0.00 | 0.00 | 0.00 | 88 | 1015.2 |
| 20260502064457 | 11 | 189 | 3.2 | 14.5 | 0.00 | 0.00 | 0.00 | 88 | 1015.2 |
| 20260502063959 | 11 | 171 | 6.4 | 14.5 | 0.00 | 0.00 | 0.00 | 88 | 1015.2 |
| 20260502063457 | 11 | 145 | 6.4 | 14.5 | 0.00 | 0.00 | 0.00 | 88 | 1015.1 |
| 20260502062457 | 11 | 193 | 6.4 | 14.5 | 0.00 | 0.00 | 0.00 | 88 | 1015.2 |
| 20260502061957 | 11 | 190 | 6.4 | 12.9 | 0.00 | 0.00 | 0.00 | 88 | 1015.2 |
| 20260502061457 | 11 | 178 | 3.2 | 12.9 | 0.00 | 0.00 | 0.00 | 88 | 1015.3 |
| 20260502060957 | 11 | 139 | 8.0 | 8.0 | 0.00 | 0.00 | 0.00 | 88 | 1015.4 |
| 20260502060457 | 11 | 161 | 1.6 | 8.0 | 0.00 | 0.00 | 0.00 | 88 | 1015.5 |
| 20260502055959 | 11 | 142 | 1.6 | 8.0 | 0.00 | 0.00 | 0.00 | 88 | 1015.5 |
| 20260502054958 | 11 | 105 | 1.6 | 9.7 | 0.00 | 0.00 | 0.00 | 88 | 1015.5 |
| 20260502054459 | 11 | 126 | 3.2 | 9.7 | 0.00 | 0.00 | 0.00 | 87 | 1015.5 |
| 20260502053959 | 11 | 126 | 3.2 | 9.7 | 0.00 | 0.00 | 0.00 | 87 | 1015.4 |
| 20260502053458 | 11 | 129 | 3.2 | 8.0 | 0.00 | 0.00 | 0.00 | 87 | 1015.4 |
| 20260502052959 | 11 | 142 | 6.4 | 9.7 | 0.00 | 0.00 | 0.00 | 87 | 1015.4 |
| 20260502051959 | 10 | 143 | 3.2 | 6.4 | 0.00 | 0.00 | 0.00 | 87 | 1015.4 |
| 20260502051500 | 10 | 126 | 3.2 | 9.7 | 0.00 | 0.00 | 0.00 | 87 | 1015.5 |
| 20260502051000 | 10 | 151 | 0.0 | 9.7 | 0.00 | 0.00 | 0.00 | 87 | 1015.5 |
| 20260502050459 | 10 | 155 | 3.2 | 11.3 | 0.00 | 0.00 | 0.00 | 87 | 1015.5 |
| 20260502050000 | 10 | 152 | 4.8 | 11.3 | 0.00 | 0.00 | 0.00 | 87 | 1015.5 |
| 20260502044957 | 10 | 155 | 4.8 | 8.0 | 0.00 | 0.00 | 0.00 | 86 | 1015.5 |
| 20260502044457 | 10 | 176 | 3.2 | 8.0 | 0.00 | 0.00 | 0.00 | 86 | 1015.5 |
| 20260502043957 | 10 | 148 | 3.2 | 8.0 | 0.00 | 0.00 | 0.00 | 86 | 1015.6 |
| 20260502043457 | 10 | 182 | 1.6 | 8.0 | 0.00 | 0.00 | 0.00 | 86 | 1015.6 |
| 20260502042957 | 10 | 180 | 4.8 | 6.4 | 0.00 | 0.00 | 0.00 | 86 | 1015.6 |
| 20260502041957 | 10 | 161 | 0.0 | 4.8 | 0.00 | 0.00 | 0.00 | 86 | 1015.6 |
| 20260502041457 | 10 | 151 | 4.8 | 4.8 | 0.00 | 0.00 | 0.00 | 86 | 1015.6 |
| 20260502040957 | 10 | 174 | 0.0 | 3.2 | 0.00 | 0.00 | 0.00 | 86 | 1015.6 |
| 20260502035957 | 10 | 174 | 1.6 | 4.8 | 0.00 | 0.00 | 0.00 | 86 | 1015.6 |
| 20260502035457 | 10 | 174 | 1.6 | 4.8 | 0.00 | 0.00 | 0.00 | 86 | 1015.7 |
| 20260502034958 | 11 | 180 | 1.6 | 4.8 | 0.00 | 0.00 | 0.00 | 86 | 1015.7 |
| 20260502034457 | 11 | 177 | 3.2 | 8.0 | 0.00 | 0.00 | 0.00 | 86 | 1015.7 |
| 20260502033958 | 11 | 170 | 3.2 | 9.7 | 0.00 | 0.00 | 0.00 | 86 | 1015.8 |
| 20260502033457 | 11 | 171 | 6.4 | 11.3 | 0.00 | 0.00 | 0.00 | 87 | 1015.8 |
| 20260502032957 | 11 | 187 | 3.2 | 11.3 | 0.00 | 0.00 | 0.00 | 87 | 1015.9 |
| 20260502032457 | 11 | 175 | 3.2 | 11.3 | 0.00 | 0.00 | 0.00 | 87 | 1016.0 |
| 20260502031957 | 11 | 186 | 4.8 | 12.9 | 0.00 | 0.00 | 0.00 | 87 | 1016.0 |
| 20260502031458 | 11 | 151 | 8.0 | 12.9 | 0.00 | 0.00 | 0.00 | 87 | 1016.0 |
| 20260502030958 | 11 | 158 | 3.2 | 9.7 | 0.00 | 0.00 | 0.00 | 87 | 1016.1 |
| 20260502025958 | 11 | 165 | 6.4 | 9.7 | 0.00 | 0.00 | 0.00 | 87 | 1016.1 |
| 20260502025458 | 11 | 176 | 4.8 | 8.0 | 0.00 | 0.00 | 0.00 | 87 | 1016.1 |
| 20260502024956 | 11 | 173 | 3.2 | 8.0 | 0.00 | 0.00 | 0.00 | 87 | 1016.3 |
| 20260502024459 | 11 | 170 | 1.6 | 8.0 | 0.00 | 0.00 | 0.00 | 87 | 1016.4 |
| 20260502023958 | 11 | 171 | 6.4 | 8.0 | 0.00 | 0.00 | 0.00 | 86 | 1016.6 |
| 20260502022458 | 11 | 184 | 6.4 | 9.7 | 0.00 | 0.00 | 0.00 | 86 | 1016.4 |
| 20260502021957 | 11 | 163 | 3.2 | 4.8 | 0.00 | 0.00 | 0.00 | 86 | 1016.6 |
| 20260502021456 | 11 | 180 | 3.2 | 4.8 | 0.00 | 0.00 | 0.00 | 86 | 1016.6 |
| 20260502020957 | 11 | 155 | 1.6 | 6.4 | 0.00 | 0.00 | 0.00 | 86 | 1016.6 |
| 20260502020457 | 11 | 149 | 4.8 | 6.4 | 0.00 | 0.00 | 0.00 | 86 | 1016.6 |
| 20260502015958 | 11 | 186 | 3.2 | 4.8 | 0.00 | 0.00 | 0.00 | 86 | 1016.8 |
| 20260502015457 | 11 | 171 | 0.0 | 8.0 | 0.00 | 0.00 | 0.00 | 86 | 1016.8 |
| 20260502014958 | 11 | 148 | 3.2 | 9.7 | 0.00 | 0.00 | 0.00 | 86 | 1016.8 |
| 20260502014459 | 11 | 157 | 3.2 | 9.7 | 0.00 | 0.00 | 0.00 | 86 | 1016.8 |
| 20260502013958 | 11 | 128 | 1.6 | 6.4 | 0.00 | 0.00 | 0.00 | 86 | 1016.9 |
| 20260502013458 | 11 | 162 | 8.0 | 8.0 | 0.00 | 0.00 | 0.00 | 86 | 1017.0 |
| 20260502012957 | 11 | 174 | 0.0 | 8.0 | 0.00 | 0.00 | 0.00 | 86 | 1017.1 |
| 20260502012459 | 11 | 170 | 1.6 | 6.4 | 0.00 | 0.00 | 0.00 | 86 | 1017.1 |
| 20260502010957 | 11 | 210 | 1.6 | 6.4 | 0.00 | 0.00 | 0.00 | 86 | 1017.3 |
| 20260502010459 | 11 | 184 | 1.6 | 6.4 | 0.00 | 0.00 | 0.00 | 86 | 1017.5 |
| 20260502005958 | 11 | 192 | 3.2 | 6.4 | 0.00 | 0.00 | 0.00 | 86 | 1017.5 |
| 20260502005457 | 11 | 202 | 3.2 | 6.4 | 0.00 | 0.00 | 0.00 | 86 | 1017.5 |
| 20260502004959 | 11 | 200 | 0.0 | 4.8 | 0.00 | 0.00 | 0.00 | 86 | 1017.5 |
| 20260502003959 | 11 | 185 | 3.2 | 6.4 | 0.00 | 0.00 | 0.00 | 86 | 1017.7 |
| 20260502003459 | 11 | 184 | 0.0 | 3.2 | 0.00 | 0.00 | 0.00 | 86 | 1017.6 |
| 20260502002959 | 11 | 162 | 0.0 | 4.8 | 0.00 | 0.00 | 0.00 | 86 | 1017.6 |
| 20260502002457 | 11 | 164 | 3.2 | 6.4 | 0.00 | 0.00 | 0.00 | 86 | 1017.6 |
| 20260502001957 | 11 | 192 | 1.6 | 4.8 | 0.00 | 0.00 | 0.00 | 86 | 1017.7 |
| 20260502001458 | 11 | 192 | 1.6 | 4.8 | 0.00 | 0.00 | 0.00 | 86 | 1017.7 |
| 20260502000957 | 11 | 181 | 3.2 | 4.8 | 0.00 | 0.00 | 0.00 | 86 | 1017.7 |
| 20260502000457 | 11 | 183 | 3.2 | 8.0 | 0.00 | 0.00 | 0.00 | 86 | 1017.6 |
| 20260501235959 | 11 | 202 | 3.2 | 9.7 | 0.00 | 0.00 | 0.00 | 86 | 1017.7 |
| 20260501235457 | 11 | 173 | 1.6 | 9.7 | 0.00 | 0.00 | 0.00 | 86 | 1017.7 |
| 20260501234457 | 11 | 173 | 0.0 | 3.2 | 0.00 | 0.00 | 0.00 | 85 | 1017.8 |
| 20260501233957 | 11 | 182 | 3.2 | 6.4 | 0.00 | 0.00 | 0.00 | 85 | 1017.8 |
| 20260501233458 | 11 | 186 | 3.2 | 6.4 | 0.00 | 0.00 | 0.00 | 85 | 1017.9 |
| 20260501232957 | 11 | 208 | 1.6 | 4.8 | 0.00 | 0.00 | 0.00 | 85 | 1017.8 |
| 20260501231958 | 11 | 181 | 3.2 | 9.7 | 0.00 | 0.00 | 0.00 | 85 | 1018.0 |
| 20260501230958 | 11 | 196 | 3.2 | 6.4 | 0.00 | 0.00 | 0.00 | 85 | 1018.1 |
| 20260501230002 | 11 | 211 | 3.2 | 8.0 | 0.00 | 0.00 | 0.00 | 85 | 1018.0 |
| 20260501225459 | 11 | 235 | 1.6 | 4.8 | 0.00 | 0.00 | 0.00 | 85 | 1018.0 |
| 20260501224458 | 11 | 202 | 0.0 | 3.2 | 0.00 | 0.00 | 0.00 | 85 | 1018.2 |
| 20260501223958 | 11 | 182 | 0.0 | 6.4 | 0.00 | 0.00 | 0.00 | 85 | 1018.2 |
| 20260501223457 | 11 | 174 | 1.6 | 6.4 | 0.00 | 0.00 | 0.00 | 85 | 1018.2 |
| 20260501222959 | 11 | 196 | 3.2 | 4.8 | 0.00 | 0.00 | 0.00 | 85 | 1018.1 |
| 20260501222458 | 11 | 184 | 3.2 | 4.8 | 0.00 | 0.00 | 0.00 | 84 | 1018.1 |
| 20260501221959 | 11 | 179 | 3.2 | 4.8 | 0.00 | 0.00 | 0.00 | 84 | 1018.2 |
| 20260501221459 | 11 | 195 | 3.2 | 4.8 | 0.00 | 0.00 | 0.00 | 84 | 1018.2 |